Terminal Aerodrome Forecast
Issued by NWS Duluth, MN

Home | Current Version | Previous Version | Text Only | Print | Product List | Glossary On
Versions: 1 2 3 4 5 6 7 8 9 10 11 12 13 14 15 16 17 18 19 20 21 22 23 24 25 26 27
000
FTUS43 KDLH 231740
TAFDLH
TAF
KDLH 231740Z 2318/2418 04008KT P6SM SCT015 BKN020
     FM232000 10008KT P6SM SCT010 SCT035
     FM240400 06005KT 3SM BR SCT010
     FM240800 08004KT 1/2SM FG BKN004
     FM241200 14005KT P6SM SKC=

USA.gov is the U.S. government's official web portal to all federal, state and local government web resources and services.